Terminal Aerodrome Forecast
Issued by NWS

Home | Current Version | Previous Version | Text Only | Print | Product List | Glossary Off
Versions: 1 2 3 4 5 6 7 8 9 10 11 12 13 14 15 16 17 18 19 20

009
FTUS41 KCLE 242336
TAFFDY
TAF
KFDY 242336Z 2500/2524 20020G30KT P6SM -TSRA BKN045CB
     FM250100 24014KT P6SM VCSH SCT020 OVC060
      TEMPO 2504/2506 26025G35KT 3SM TSRA BKN015CB
     FM251000 24015G25KT P6SM OVC020
     FM251700 26020G30KT P6SM BKN025=

USA.gov is the U.S. government's official web portal to all federal, state and local government web resources and services.